sensor_id;sensor_type;location;lat;lon;timestamp;P1;durP1;ratioP1;P2;durP2;ratioP2
76599;SDS011;65489;52.048;6.090;2023-04-03T00:00:51;0.80;;;0.30;;
76599;SDS011;65489;52.048;6.090;2023-04-03T00:03:17;1.20;;;0.30;;
76599;SDS011;65489;52.048;6.090;2023-04-03T00:05:43;0.50;;;0.30;;
76599;SDS011;65489;52.048;6.090;2023-04-03T00:08:09;0.40;;;0.30;;
76599;SDS011;65489;52.048;6.090;2023-04-03T00:10:35;0.40;;;0.30;;
76599;SDS011;65489;52.048;6.090;2023-04-03T00:13:01;0.73;;;0.40;;
76599;SDS011;65489;52.048;6.090;2023-04-03T00:15:28;0.70;;;0.40;;
76599;SDS011;65489;52.048;6.090;2023-04-03T00:17:53;0.80;;;0.30;;
76599;SDS011;65489;52.048;6.090;2023-04-03T00:20:19;0.73;;;0.30;;
76599;SDS011;65489;52.048;6.090;2023-04-03T00:22:44;0.40;;;0.30;;
76599;SDS011;65489;52.048;6.090;2023-04-03T00:25:10;0.60;;;0.30;;
76599;SDS011;65489;52.048;6.090;2023-04-03T00:27:39;0.55;;;0.20;;
76599;SDS011;65489;52.048;6.090;2023-04-03T00:30:06;0.40;;;0.20;;
76599;SDS011;65489;52.048;6.090;2023-04-03T00:32:32;0.50;;;0.30;;
76599;SDS011;65489;52.048;6.090;2023-04-03T00:34:58;0.40;;;0.20;;
76599;SDS011;65489;52.048;6.090;2023-04-03T00:37:23;0.77;;;0.43;;
76599;SDS011;65489;52.048;6.090;2023-04-03T00:39:49;0.75;;;0.32;;
76599;SDS011;65489;52.048;6.090;2023-04-03T00:42:15;1.02;;;0.30;;
76599;SDS011;65489;52.048;6.090;2023-04-03T00:47:07;3.72;;;0.70;;
76599;SDS011;65489;52.048;6.090;2023-04-03T00:49:34;0.30;;;0.20;;
76599;SDS011;65489;52.048;6.090;2023-04-03T00:52:01;0.63;;;0.43;;
76599;SDS011;65489;52.048;6.090;2023-04-03T00:54:26;0.77;;;0.30;;
76599;SDS011;65489;52.048;6.090;2023-04-03T00:56:52;0.57;;;0.30;;
76599;SDS011;65489;52.048;6.090;2023-04-03T00:59:24;0.60;;;0.32;;
76599;SDS011;65489;52.048;6.090;2023-04-03T01:01:55;0.50;;;0.28;;
76599;SDS011;65489;52.048;6.090;2023-04-03T01:07:06;0.50;;;0.38;;
76599;SDS011;65489;52.048;6.090;2023-04-03T01:09:32;0.40;;;0.22;;
76599;SDS011;65489;52.048;6.090;2023-04-03T01:12:15;0.50;;;0.40;;
76599;SDS011;65489;52.048;6.090;2023-04-03T01:14:42;0.40;;;0.30;;
76599;SDS011;65489;52.048;6.090;2023-04-03T01:20:20;0.35;;;0.20;;
76599;SDS011;65489;52.048;6.090;2023-04-03T01:25:16;1.15;;;0.30;;
76599;SDS011;65489;52.048;6.090;2023-04-03T01:27:42;0.45;;;0.25;;
76599;SDS011;65489;52.048;6.090;2023-04-03T01:30:08;1.65;;;0.30;;
76599;SDS011;65489;52.048;6.090;2023-04-03T01:32:35;0.57;;;0.30;;
76599;SDS011;65489;52.048;6.090;2023-04-03T01:35:00;0.30;;;0.20;;
76599;SDS011;65489;52.048;6.090;2023-04-03T01:37:25;0.32;;;0.20;;
76599;SDS011;65489;52.048;6.090;2023-04-03T01:39:51;0.40;;;0.30;;
76599;SDS011;65489;52.048;6.090;2023-04-03T01:42:17;0.32;;;0.20;;
76599;SDS011;65489;52.048;6.090;2023-04-03T01:44:43;0.75;;;0.38;;
76599;SDS011;65489;52.048;6.090;2023-04-03T01:47:09;0.43;;;0.20;;
76599;SDS011;65489;52.048;6.090;2023-04-03T01:49:36;0.30;;;0.30;;
76599;SDS011;65489;52.048;6.090;2023-04-03T01:52:02;0.93;;;0.35;;
76599;SDS011;65489;52.048;6.090;2023-04-03T01:54:28;0.40;;;0.20;;
76599;SDS011;65489;52.048;6.090;2023-04-03T01:56:53;0.80;;;0.28;;
76599;SDS011;65489;52.048;6.090;2023-04-03T01:59:20;0.65;;;0.40;;
76599;SDS011;65489;52.048;6.090;2023-04-03T02:01:45;0.77;;;0.28;;
76599;SDS011;65489;52.048;6.090;2023-04-03T02:04:11;1.30;;;0.38;;
76599;SDS011;65489;52.048;6.090;2023-04-03T02:06:37;0.70;;;0.30;;
76599;SDS011;65489;52.048;6.090;2023-04-03T02:09:03;0.95;;;0.40;;
76599;SDS011;65489;52.048;6.090;2023-04-03T02:11:29;0.40;;;0.22;;
76599;SDS011;65489;52.048;6.090;2023-04-03T02:13:55;1.60;;;0.30;;
76599;SDS011;65489;52.048;6.090;2023-04-03T02:16:21;0.35;;;0.20;;
76599;SDS011;65489;52.048;6.090;2023-04-03T02:18:48;0.50;;;0.22;;
76599;SDS011;65489;52.048;6.090;2023-04-03T02:21:13;0.70;;;0.25;;
76599;SDS011;65489;52.048;6.090;2023-04-03T02:23:39;0.35;;;0.20;;
76599;SDS011;65489;52.048;6.090;2023-04-03T02:26:13;0.60;;;0.30;;
76599;SDS011;65489;52.048;6.090;2023-04-03T02:28:39;1.75;;;0.20;;
76599;SDS011;65489;52.048;6.090;2023-04-03T02:31:06;0.40;;;0.20;;
76599;SDS011;65489;52.048;6.090;2023-04-03T02:33:32;1.75;;;0.38;;
76599;SDS011;65489;52.048;6.090;2023-04-03T02:35:58;0.47;;;0.30;;
76599;SDS011;65489;52.048;6.090;2023-04-03T02:38:24;0.43;;;0.30;;
76599;SDS011;65489;52.048;6.090;2023-04-03T02:40:51;0.40;;;0.20;;
76599;SDS011;65489;52.048;6.090;2023-04-03T02:43:17;0.30;;;0.20;;
76599;SDS011;65489;52.048;6.090;2023-04-03T02:45:43;0.50;;;0.30;;
76599;SDS011;65489;52.048;6.090;2023-04-03T02:48:09;0.25;;;0.15;;
76599;SDS011;65489;52.048;6.090;2023-04-03T02:50:34;0.43;;;0.30;;
76599;SDS011;65489;52.048;6.090;2023-04-03T02:53:00;0.75;;;0.35;;
76599;SDS011;65489;52.048;6.090;2023-04-03T02:55:25;0.50;;;0.30;;
76599;SDS011;65489;52.048;6.090;2023-04-03T02:57:53;0.52;;;0.30;;
76599;SDS011;65489;52.048;6.090;2023-04-03T03:00:19;0.52;;;0.30;;
76599;SDS011;65489;52.048;6.090;2023-04-03T03:02:45;1.05;;;0.30;;
76599;SDS011;65489;52.048;6.090;2023-04-03T03:05:10;0.60;;;0.30;;
76599;SDS011;65489;52.048;6.090;2023-04-03T03:07:36;0.73;;;0.40;;
76599;SDS011;65489;52.048;6.090;2023-04-03T03:10:01;0.25;;;0.20;;
76599;SDS011;65489;52.048;6.090;2023-04-03T03:12:27;0.60;;;0.30;;
76599;SDS011;65489;52.048;6.090;2023-04-03T03:14:52;3.38;;;0.50;;
76599;SDS011;65489;52.048;6.090;2023-04-03T03:17:18;0.52;;;0.40;;
76599;SDS011;65489;52.048;6.090;2023-04-03T03:19:43;0.50;;;0.25;;
76599;SDS011;65489;52.048;6.090;2023-04-03T03:22:09;0.52;;;0.30;;
76599;SDS011;65489;52.048;6.090;2023-04-03T03:24:34;0.68;;;0.22;;
76599;SDS011;65489;52.048;6.090;2023-04-03T03:27:00;0.40;;;0.20;;
76599;SDS011;65489;52.048;6.090;2023-04-03T03:29:25;0.57;;;0.30;;
76599;SDS011;65489;52.048;6.090;2023-04-03T03:31:51;0.38;;;0.20;;
76599;SDS011;65489;52.048;6.090;2023-04-03T03:34:16;0.57;;;0.30;;
76599;SDS011;65489;52.048;6.090;2023-04-03T03:36:42;0.45;;;0.30;;
76599;SDS011;65489;52.048;6.090;2023-04-03T03:39:08;0.40;;;0.25;;
76599;SDS011;65489;52.048;6.090;2023-04-03T03:41:34;0.40;;;0.20;;
76599;SDS011;65489;52.048;6.090;2023-04-03T03:43:59;0.40;;;0.20;;
76599;SDS011;65489;52.048;6.090;2023-04-03T03:46:28;0.30;;;0.30;;
76599;SDS011;65489;52.048;6.090;2023-04-03T03:48:53;0.50;;;0.30;;
76599;SDS011;65489;52.048;6.090;2023-04-03T03:51:18;0.47;;;0.25;;
76599;SDS011;65489;52.048;6.090;2023-04-03T03:53:44;0.85;;;0.40;;
76599;SDS011;65489;52.048;6.090;2023-04-03T03:56:13;0.47;;;0.28;;
76599;SDS011;65489;52.048;6.090;2023-04-03T03:58:40;0.90;;;0.30;;
76599;SDS011;65489;52.048;6.090;2023-04-03T04:01:06;0.80;;;0.30;;
76599;SDS011;65489;52.048;6.090;2023-04-03T04:03:34;0.33;;;0.10;;
76599;SDS011;65489;52.048;6.090;2023-04-03T04:06:00;0.82;;;0.30;;
76599;SDS011;65489;52.048;6.090;2023-04-03T04:08:26;0.50;;;0.30;;
76599;SDS011;65489;52.048;6.090;2023-04-03T04:10:52;0.57;;;0.30;;
76599;SDS011;65489;52.048;6.090;2023-04-03T04:13:18;1.00;;;0.30;;
76599;SDS011;65489;52.048;6.090;2023-04-03T04:15:44;0.40;;;0.20;;
76599;SDS011;65489;52.048;6.090;2023-04-03T04:18:10;0.40;;;0.30;;
76599;SDS011;65489;52.048;6.090;2023-04-03T04:20:36;0.80;;;0.30;;
76599;SDS011;65489;52.048;6.090;2023-04-03T04:23:02;0.45;;;0.30;;
76599;SDS011;65489;52.048;6.090;2023-04-03T04:25:29;0.30;;;0.17;;
76599;SDS011;65489;52.048;6.090;2023-04-03T04:27:54;0.35;;;0.30;;
76599;SDS011;65489;52.048;6.090;2023-04-03T04:30:20;0.60;;;0.30;;
76599;SDS011;65489;52.048;6.090;2023-04-03T04:32:47;0.47;;;0.22;;
76599;SDS011;65489;52.048;6.090;2023-04-03T04:35:13;0.40;;;0.20;;
76599;SDS011;65489;52.048;6.090;2023-04-03T04:37:41;0.40;;;0.22;;
76599;SDS011;65489;52.048;6.090;2023-04-03T04:40:08;0.60;;;0.30;;
76599;SDS011;65489;52.048;6.090;2023-04-03T04:42:33;0.60;;;0.32;;
76599;SDS011;65489;52.048;6.090;2023-04-03T04:44:59;0.90;;;0.50;;
76599;SDS011;65489;52.048;6.090;2023-04-03T04:47:25;0.57;;;0.20;;
76599;SDS011;65489;52.048;6.090;2023-04-03T04:49:50;1.08;;;0.40;;
76599;SDS011;65489;52.048;6.090;2023-04-03T04:52:16;1.05;;;0.35;;
76599;SDS011;65489;52.048;6.090;2023-04-03T04:54:42;0.40;;;0.20;;
76599;SDS011;65489;52.048;6.090;2023-04-03T04:57:08;1.10;;;0.30;;
76599;SDS011;65489;52.048;6.090;2023-04-03T04:59:35;0.45;;;0.25;;
76599;SDS011;65489;52.048;6.090;2023-04-03T05:02:01;1.65;;;0.28;;
76599;SDS011;65489;52.048;6.090;2023-04-03T05:04:27;0.50;;;0.28;;
76599;SDS011;65489;52.048;6.090;2023-04-03T05:06:59;0.80;;;0.30;;
76599;SDS011;65489;52.048;6.090;2023-04-03T05:09:27;0.60;;;0.40;;
76599;SDS011;65489;52.048;6.090;2023-04-03T05:11:53;0.43;;;0.25;;
76599;SDS011;65489;52.048;6.090;2023-04-03T05:14:22;1.75;;;0.30;;
76599;SDS011;65489;52.048;6.090;2023-04-03T05:16:48;0.40;;;0.20;;
76599;SDS011;65489;52.048;6.090;2023-04-03T05:19:18;0.88;;;0.30;;
76599;SDS011;65489;52.048;6.090;2023-04-03T05:21:45;0.82;;;0.30;;
76599;SDS011;65489;52.048;6.090;2023-04-03T05:24:14;0.50;;;0.20;;
76599;SDS011;65489;52.048;6.090;2023-04-03T05:26:42;3.60;;;0.40;;
76599;SDS011;65489;52.048;6.090;2023-04-03T05:29:09;0.98;;;0.30;;
76599;SDS011;65489;52.048;6.090;2023-04-03T05:31:35;0.65;;;0.28;;
76599;SDS011;65489;52.048;6.090;2023-04-03T05:34:01;0.82;;;0.30;;
76599;SDS011;65489;52.048;6.090;2023-04-03T05:36:29;0.57;;;0.30;;
76599;SDS011;65489;52.048;6.090;2023-04-03T05:38:59;0.30;;;0.20;;
76599;SDS011;65489;52.048;6.090;2023-04-03T05:41:25;0.30;;;0.30;;
76599;SDS011;65489;52.048;6.090;2023-04-03T05:43:51;0.45;;;0.30;;
76599;SDS011;65489;52.048;6.090;2023-04-03T05:46:18;0.45;;;0.20;;
76599;SDS011;65489;52.048;6.090;2023-04-03T05:48:49;0.73;;;0.20;;
76599;SDS011;65489;52.048;6.090;2023-04-03T05:51:19;0.52;;;0.40;;
76599;SDS011;65489;52.048;6.090;2023-04-03T05:53:57;0.77;;;0.30;;
76599;SDS011;65489;52.048;6.090;2023-04-03T05:56:34;2.05;;;0.30;;
76599;SDS011;65489;52.048;6.090;2023-04-03T05:59:00;0.47;;;0.20;;
76599;SDS011;65489;52.048;6.090;2023-04-03T06:01:26;1.60;;;0.30;;
76599;SDS011;65489;52.048;6.090;2023-04-03T06:03:51;0.75;;;0.38;;
76599;SDS011;65489;52.048;6.090;2023-04-03T06:06:17;0.30;;;0.20;;
76599;SDS011;65489;52.048;6.090;2023-04-03T06:08:43;1.17;;;0.40;;
76599;SDS011;65489;52.048;6.090;2023-04-03T06:11:09;0.40;;;0.28;;
76599;SDS011;65489;52.048;6.090;2023-04-03T06:13:34;0.50;;;0.30;;
76599;SDS011;65489;52.048;6.090;2023-04-03T06:16:00;0.43;;;0.30;;
76599;SDS011;65489;52.048;6.090;2023-04-03T06:18:25;1.02;;;0.43;;
76599;SDS011;65489;52.048;6.090;2023-04-03T06:20:51;0.40;;;0.38;;
76599;SDS011;65489;52.048;6.090;2023-04-03T06:23:17;0.60;;;0.30;;
76599;SDS011;65489;52.048;6.090;2023-04-03T06:25:43;1.42;;;0.32;;
76599;SDS011;65489;52.048;6.090;2023-04-03T06:28:09;0.65;;;0.35;;
76599;SDS011;65489;52.048;6.090;2023-04-03T06:30:35;0.80;;;0.50;;
76599;SDS011;65489;52.048;6.090;2023-04-03T06:33:01;0.30;;;0.28;;
76599;SDS011;65489;52.048;6.090;2023-04-03T06:35:27;0.70;;;0.30;;
76599;SDS011;65489;52.048;6.090;2023-04-03T06:37:53;0.45;;;0.22;;
76599;SDS011;65489;52.048;6.090;2023-04-03T06:40:20;0.47;;;0.30;;
76599;SDS011;65489;52.048;6.090;2023-04-03T06:42:47;0.30;;;0.10;;
76599;SDS011;65489;52.048;6.090;2023-04-03T06:45:13;0.57;;;0.35;;
76599;SDS011;65489;52.048;6.090;2023-04-03T06:47:38;0.55;;;0.30;;
76599;SDS011;65489;52.048;6.090;2023-04-03T06:50:04;0.57;;;0.30;;
76599;SDS011;65489;52.048;6.090;2023-04-03T06:52:31;0.43;;;0.20;;
76599;SDS011;65489;52.048;6.090;2023-04-03T06:54:56;0.68;;;0.32;;
76599;SDS011;65489;52.048;6.090;2023-04-03T06:57:24;0.50;;;0.32;;
76599;SDS011;65489;52.048;6.090;2023-04-03T06:59:50;0.73;;;0.30;;
76599;SDS011;65489;52.048;6.090;2023-04-03T07:02:16;1.05;;;0.38;;
76599;SDS011;65489;52.048;6.090;2023-04-03T07:04:41;0.40;;;0.20;;
76599;SDS011;65489;52.048;6.090;2023-04-03T07:07:07;1.30;;;0.30;;
76599;SDS011;65489;52.048;6.090;2023-04-03T07:09:33;0.60;;;0.30;;
76599;SDS011;65489;52.048;6.090;2023-04-03T07:11:58;0.30;;;0.20;;
76599;SDS011;65489;52.048;6.090;2023-04-03T07:14:24;0.70;;;0.40;;
76599;SDS011;65489;52.048;6.090;2023-04-03T07:16:50;0.88;;;0.30;;
76599;SDS011;65489;52.048;6.090;2023-04-03T07:19:15;0.55;;;0.30;;
76599;SDS011;65489;52.048;6.090;2023-04-03T07:21:41;1.58;;;0.40;;
76599;SDS011;65489;52.048;6.090;2023-04-03T07:24:07;0.63;;;0.32;;
76599;SDS011;65489;52.048;6.090;2023-04-03T07:26:32;0.60;;;0.40;;
76599;SDS011;65489;52.048;6.090;2023-04-03T07:28:58;0.63;;;0.30;;
76599;SDS011;65489;52.048;6.090;2023-04-03T07:31:24;1.88;;;0.50;;
76599;SDS011;65489;52.048;6.090;2023-04-03T07:33:50;2.45;;;0.57;;
76599;SDS011;65489;52.048;6.090;2023-04-03T07:36:17;3.42;;;0.90;;
76599;SDS011;65489;52.048;6.090;2023-04-03T07:38:45;2.05;;;0.80;;
76599;SDS011;65489;52.048;6.090;2023-04-03T07:41:14;5.85;;;0.95;;
76599;SDS011;65489;52.048;6.090;2023-04-03T07:43:42;3.88;;;1.00;;
76599;SDS011;65489;52.048;6.090;2023-04-03T07:46:08;3.22;;;0.90;;
76599;SDS011;65489;52.048;6.090;2023-04-03T07:48:34;4.25;;;1.05;;
76599;SDS011;65489;52.048;6.090;2023-04-03T07:51:00;3.97;;;1.20;;
76599;SDS011;65489;52.048;6.090;2023-04-03T07:53:27;6.85;;;1.65;;
76599;SDS011;65489;52.048;6.090;2023-04-03T07:55:52;5.45;;;1.35;;
76599;SDS011;65489;52.048;6.090;2023-04-03T07:58:21;4.10;;;1.30;;
76599;SDS011;65489;52.048;6.090;2023-04-03T08:00:47;5.50;;;1.27;;
76599;SDS011;65489;52.048;6.090;2023-04-03T08:03:13;4.93;;;1.25;;
76599;SDS011;65489;52.048;6.090;2023-04-03T08:05:42;3.88;;;1.13;;
76599;SDS011;65489;52.048;6.090;2023-04-03T08:08:10;6.13;;;1.30;;
76599;SDS011;65489;52.048;6.090;2023-04-03T08:10:36;5.50;;;1.48;;
76599;SDS011;65489;52.048;6.090;2023-04-03T08:13:02;7.30;;;1.63;;
76599;SDS011;65489;52.048;6.090;2023-04-03T08:15:27;4.68;;;1.55;;
76599;SDS011;65489;52.048;6.090;2023-04-03T08:17:53;5.50;;;1.27;;
76599;SDS011;65489;52.048;6.090;2023-04-03T08:20:18;5.70;;;1.25;;
76599;SDS011;65489;52.048;6.090;2023-04-03T08:22:44;6.20;;;1.45;;
76599;SDS011;65489;52.048;6.090;2023-04-03T08:25:10;4.03;;;1.52;;
76599;SDS011;65489;52.048;6.090;2023-04-03T08:27:35;8.95;;;1.88;;
76599;SDS011;65489;52.048;6.090;2023-04-03T08:30:01;4.70;;;1.50;;
76599;SDS011;65489;52.048;6.090;2023-04-03T08:32:26;4.07;;;1.50;;
76599;SDS011;65489;52.048;6.090;2023-04-03T08:34:53;4.57;;;1.60;;
76599;SDS011;65489;52.048;6.090;2023-04-03T08:37:18;6.50;;;1.30;;
76599;SDS011;65489;52.048;6.090;2023-04-03T08:39:44;4.03;;;1.58;;
76599;SDS011;65489;52.048;6.090;2023-04-03T08:42:19;8.93;;;2.38;;
76599;SDS011;65489;52.048;6.090;2023-04-03T08:47:37;3.72;;;1.25;;
76599;SDS011;65489;52.048;6.090;2023-04-03T08:50:06;6.43;;;1.50;;
76599;SDS011;65489;52.048;6.090;2023-04-03T08:52:37;3.42;;;1.35;;
76599;SDS011;65489;52.048;6.090;2023-04-03T08:55:20;4.35;;;1.40;;
76599;SDS011;65489;52.048;6.090;2023-04-03T08:57:48;3.75;;;1.25;;
76599;SDS011;65489;52.048;6.090;2023-04-03T09:00:20;5.50;;;1.48;;
76599;SDS011;65489;52.048;6.090;2023-04-03T09:02:49;3.10;;;1.27;;
76599;SDS011;65489;52.048;6.090;2023-04-03T09:08:48;6.72;;;1.67;;
76599;SDS011;65489;52.048;6.090;2023-04-03T09:16:15;4.60;;;1.40;;
76599;SDS011;65489;52.048;6.090;2023-04-03T09:18:45;6.43;;;1.45;;
76599;SDS011;65489;52.048;6.090;2023-04-03T09:21:20;5.10;;;1.50;;
76599;SDS011;65489;52.048;6.090;2023-04-03T09:23:47;4.65;;;1.52;;
76599;SDS011;65489;52.048;6.090;2023-04-03T09:26:17;2.80;;;1.20;;
76599;SDS011;65489;52.048;6.090;2023-04-03T09:28:51;4.05;;;1.50;;
76599;SDS011;65489;52.048;6.090;2023-04-03T09:31:23;5.05;;;1.70;;
76599;SDS011;65489;52.048;6.090;2023-04-03T09:33:58;4.57;;;1.30;;
76599;SDS011;65489;52.048;6.090;2023-04-03T09:39:26;2.97;;;1.20;;
76599;SDS011;65489;52.048;6.090;2023-04-03T09:44:53;3.67;;;1.15;;
76599;SDS011;65489;52.048;6.090;2023-04-03T09:52:37;3.15;;;1.40;;
76599;SDS011;65489;52.048;6.090;2023-04-03T09:55:13;4.65;;;1.33;;
76599;SDS011;65489;52.048;6.090;2023-04-03T09:57:44;4.95;;;0.90;;
76599;SDS011;65489;52.048;6.090;2023-04-03T10:00:56;4.50;;;1.15;;
76599;SDS011;65489;52.048;6.090;2023-04-03T10:02:58;3.58;;;1.00;;
76599;SDS011;65489;52.048;6.090;2023-04-03T10:08:07;4.80;;;1.20;;
76599;SDS011;65489;52.048;6.090;2023-04-03T10:10:39;3.15;;;1.15;;
76599;SDS011;65489;52.048;6.090;2023-04-03T10:13:19;2.45;;;0.80;;
76599;SDS011;65489;52.048;6.090;2023-04-03T10:15:55;3.10;;;1.10;;
76599;SDS011;65489;52.048;6.090;2023-04-03T10:21:11;4.00;;;1.20;;
76599;SDS011;65489;52.048;6.090;2023-04-03T10:23:46;4.25;;;1.10;;
76599;SDS011;65489;52.048;6.090;2023-04-03T10:26:35;3.92;;;1.30;;
76599;SDS011;65489;52.048;6.090;2023-04-03T10:31:59;3.00;;;0.90;;
76599;SDS011;65489;52.048;6.090;2023-04-03T10:34:38;5.05;;;1.33;;
76599;SDS011;65489;52.048;6.090;2023-04-03T10:37:21;2.22;;;0.90;;
76599;SDS011;65489;52.048;6.090;2023-04-03T10:39:57;3.08;;;0.98;;
76599;SDS011;65489;52.048;6.090;2023-04-03T10:53:24;3.30;;;0.95;;
76599;SDS011;65489;52.048;6.090;2023-04-03T10:56:01;2.63;;;0.90;;
76599;SDS011;65489;52.048;6.090;2023-04-03T10:58:31;2.30;;;0.98;;
76599;SDS011;65489;52.048;6.090;2023-04-03T11:01:08;3.90;;;0.90;;
76599;SDS011;65489;52.048;6.090;2023-04-03T11:03:40;2.80;;;1.20;;
76599;SDS011;65489;52.048;6.090;2023-04-03T11:06:12;3.58;;;0.80;;
76599;SDS011;65489;52.048;6.090;2023-04-03T11:08:50;2.65;;;0.80;;
76599;SDS011;65489;52.048;6.090;2023-04-03T11:11:27;2.05;;;0.70;;
76599;SDS011;65489;52.048;6.090;2023-04-03T11:14:01;1.67;;;0.80;;
76599;SDS011;65489;52.048;6.090;2023-04-03T11:16:29;3.50;;;1.00;;
76599;SDS011;65489;52.048;6.090;2023-04-03T11:19:10;3.33;;;0.80;;
76599;SDS011;65489;52.048;6.090;2023-04-03T11:21:43;2.72;;;0.65;;
76599;SDS011;65489;52.048;6.090;2023-04-03T11:24:21;2.03;;;0.75;;
76599;SDS011;65489;52.048;6.090;2023-04-03T11:26:50;1.95;;;0.77;;
76599;SDS011;65489;52.048;6.090;2023-04-03T11:29:21;1.73;;;0.60;;
76599;SDS011;65489;52.048;6.090;2023-04-03T11:34:33;1.80;;;0.60;;
76599;SDS011;65489;52.048;6.090;2023-04-03T11:37:11;1.65;;;0.65;;
76599;SDS011;65489;52.048;6.090;2023-04-03T11:39:40;2.42;;;0.70;;
76599;SDS011;65489;52.048;6.090;2023-04-03T11:42:16;1.95;;;0.57;;
76599;SDS011;65489;52.048;6.090;2023-04-03T11:45:15;1.25;;;0.60;;
76599;SDS011;65489;52.048;6.090;2023-04-03T11:47:54;0.93;;;0.50;;
76599;SDS011;65489;52.048;6.090;2023-04-03T11:52:59;1.48;;;0.60;;
76599;SDS011;65489;52.048;6.090;2023-04-03T12:05:50;1.25;;;0.50;;
76599;SDS011;65489;52.048;6.090;2023-04-03T12:08:26;1.55;;;0.50;;
76599;SDS011;65489;52.048;6.090;2023-04-03T12:16:04;1.40;;;0.60;;
76599;SDS011;65489;52.048;6.090;2023-04-03T12:18:44;1.75;;;0.77;;
76599;SDS011;65489;52.048;6.090;2023-04-03T12:21:17;1.38;;;0.68;;
76599;SDS011;65489;52.048;6.090;2023-04-03T12:26:36;1.10;;;0.50;;
76599;SDS011;65489;52.048;6.090;2023-04-03T12:29:25;1.25;;;0.47;;
76599;SDS011;65489;52.048;6.090;2023-04-03T12:45:27;1.13;;;0.50;;
76599;SDS011;65489;52.048;6.090;2023-04-03T12:47:53;1.35;;;0.50;;
76599;SDS011;65489;52.048;6.090;2023-04-03T12:50:32;0.93;;;0.40;;
76599;SDS011;65489;52.048;6.090;2023-04-03T12:55:29;1.02;;;0.50;;
76599;SDS011;65489;52.048;6.090;2023-04-03T12:57:55;1.52;;;0.50;;
76599;SDS011;65489;52.048;6.090;2023-04-03T13:02:47;0.75;;;0.40;;
76599;SDS011;65489;52.048;6.090;2023-04-03T13:05:14;0.80;;;0.40;;
76599;SDS011;65489;52.048;6.090;2023-04-03T13:12:47;0.60;;;0.40;;
76599;SDS011;65489;52.048;6.090;2023-04-03T13:15:16;0.90;;;0.38;;
76599;SDS011;65489;52.048;6.090;2023-04-03T13:17:48;1.55;;;0.50;;
76599;SDS011;65489;52.048;6.090;2023-04-03T13:20:27;0.80;;;0.25;;
76599;SDS011;65489;52.048;6.090;2023-04-03T13:23:05;0.73;;;0.30;;
76599;SDS011;65489;52.048;6.090;2023-04-03T13:25:33;0.77;;;0.40;;
76599;SDS011;65489;52.048;6.090;2023-04-03T13:28:00;0.63;;;0.30;;
76599;SDS011;65489;52.048;6.090;2023-04-03T13:30:29;1.70;;;0.40;;
76599;SDS011;65489;52.048;6.090;2023-04-03T13:35:45;0.68;;;0.40;;
76599;SDS011;65489;52.048;6.090;2023-04-03T13:40:52;1.10;;;0.30;;
76599;SDS011;65489;52.048;6.090;2023-04-03T13:43:33;1.00;;;0.50;;
76599;SDS011;65489;52.048;6.090;2023-04-03T13:46:02;0.75;;;0.40;;
76599;SDS011;65489;52.048;6.090;2023-04-03T13:48:43;1.05;;;0.40;;
76599;SDS011;65489;52.048;6.090;2023-04-03T13:53:41;0.80;;;0.50;;
76599;SDS011;65489;52.048;6.090;2023-04-03T13:56:15;1.67;;;0.40;;
76599;SDS011;65489;52.048;6.090;2023-04-03T13:58:52;0.90;;;0.50;;
76599;SDS011;65489;52.048;6.090;2023-04-03T14:01:32;1.08;;;0.40;;
76599;SDS011;65489;52.048;6.090;2023-04-03T14:04:09;0.90;;;0.50;;
76599;SDS011;65489;52.048;6.090;2023-04-03T14:06:37;0.40;;;0.30;;
76599;SDS011;65489;52.048;6.090;2023-04-03T14:09:02;0.50;;;0.32;;
76599;SDS011;65489;52.048;6.090;2023-04-03T14:11:29;1.90;;;0.50;;
76599;SDS011;65489;52.048;6.090;2023-04-03T14:13:56;0.63;;;0.35;;
76599;SDS011;65489;52.048;6.090;2023-04-03T14:16:24;1.05;;;0.60;;
76599;SDS011;65489;52.048;6.090;2023-04-03T14:21:18;0.98;;;0.50;;
76599;SDS011;65489;52.048;6.090;2023-04-03T14:23:45;0.77;;;0.40;;
76599;SDS011;65489;52.048;6.090;2023-04-03T14:26:12;1.45;;;0.50;;
76599;SDS011;65489;52.048;6.090;2023-04-03T14:28:49;1.08;;;0.38;;
76599;SDS011;65489;52.048;6.090;2023-04-03T14:31:17;0.82;;;0.40;;
76599;SDS011;65489;52.048;6.090;2023-04-03T14:33:43;0.77;;;0.40;;
76599;SDS011;65489;52.048;6.090;2023-04-03T14:36:17;1.17;;;0.60;;
76599;SDS011;65489;52.048;6.090;2023-04-03T14:38:44;0.50;;;0.32;;
76599;SDS011;65489;52.048;6.090;2023-04-03T14:41:13;0.85;;;0.50;;
76599;SDS011;65489;52.048;6.090;2023-04-03T14:43:40;1.17;;;0.40;;
76599;SDS011;65489;52.048;6.090;2023-04-03T14:46:09;1.92;;;0.40;;
76599;SDS011;65489;52.048;6.090;2023-04-03T14:48:37;0.73;;;0.50;;
76599;SDS011;65489;52.048;6.090;2023-04-03T14:51:03;0.90;;;0.40;;
76599;SDS011;65489;52.048;6.090;2023-04-03T14:53:28;0.93;;;0.45;;
76599;SDS011;65489;52.048;6.090;2023-04-03T14:55:54;1.75;;;0.30;;
76599;SDS011;65489;52.048;6.090;2023-04-03T14:58:20;1.42;;;0.40;;
76599;SDS011;65489;52.048;6.090;2023-04-03T15:00:46;0.88;;;0.30;;
76599;SDS011;65489;52.048;6.090;2023-04-03T15:03:16;0.55;;;0.28;;
76599;SDS011;65489;52.048;6.090;2023-04-03T15:05:43;0.35;;;0.20;;
76599;SDS011;65489;52.048;6.090;2023-04-03T15:08:13;0.60;;;0.32;;
76599;SDS011;65489;52.048;6.090;2023-04-03T15:10:41;0.70;;;0.30;;
76599;SDS011;65489;52.048;6.090;2023-04-03T15:13:08;1.33;;;0.50;;
76599;SDS011;65489;52.048;6.090;2023-04-03T15:15:33;0.80;;;0.47;;
76599;SDS011;65489;52.048;6.090;2023-04-03T15:18:00;2.03;;;0.30;;
76599;SDS011;65489;52.048;6.090;2023-04-03T15:20:26;1.08;;;0.40;;
76599;SDS011;65489;52.048;6.090;2023-04-03T15:22:53;0.60;;;0.30;;
76599;SDS011;65489;52.048;6.090;2023-04-03T15:25:18;1.35;;;0.40;;
76599;SDS011;65489;52.048;6.090;2023-04-03T15:27:44;0.77;;;0.30;;
76599;SDS011;65489;52.048;6.090;2023-04-03T15:30:14;0.85;;;0.40;;
76599;SDS011;65489;52.048;6.090;2023-04-03T15:32:40;0.80;;;0.30;;
76599;SDS011;65489;52.048;6.090;2023-04-03T15:35:06;0.80;;;0.47;;
76599;SDS011;65489;52.048;6.090;2023-04-03T15:37:32;0.63;;;0.38;;
76599;SDS011;65489;52.048;6.090;2023-04-03T15:39:57;0.93;;;0.40;;
76599;SDS011;65489;52.048;6.090;2023-04-03T15:42:23;2.13;;;0.50;;
76599;SDS011;65489;52.048;6.090;2023-04-03T15:44:48;0.60;;;0.30;;
76599;SDS011;65489;52.048;6.090;2023-04-03T15:47:14;0.60;;;0.40;;
76599;SDS011;65489;52.048;6.090;2023-04-03T15:49:39;1.15;;;0.50;;
76599;SDS011;65489;52.048;6.090;2023-04-03T15:52:05;1.45;;;0.50;;
76599;SDS011;65489;52.048;6.090;2023-04-03T15:54:30;0.82;;;0.40;;
76599;SDS011;65489;52.048;6.090;2023-04-03T15:56:56;1.92;;;0.50;;
76599;SDS011;65489;52.048;6.090;2023-04-03T15:59:22;0.82;;;0.40;;
76599;SDS011;65489;52.048;6.090;2023-04-03T16:01:48;0.70;;;0.30;;
76599;SDS011;65489;52.048;6.090;2023-04-03T16:04:14;0.88;;;0.40;;
76599;SDS011;65489;52.048;6.090;2023-04-03T16:06:40;0.68;;;0.47;;
76599;SDS011;65489;52.048;6.090;2023-04-03T16:09:06;1.58;;;0.40;;
76599;SDS011;65489;52.048;6.090;2023-04-03T16:11:32;0.82;;;0.40;;
76599;SDS011;65489;52.048;6.090;2023-04-03T16:14:00;1.00;;;0.40;;
76599;SDS011;65489;52.048;6.090;2023-04-03T16:16:25;2.15;;;0.70;;
76599;SDS011;65489;52.048;6.090;2023-04-03T16:18:53;0.65;;;0.30;;
76599;SDS011;65489;52.048;6.090;2023-04-03T16:21:19;0.77;;;0.38;;
76599;SDS011;65489;52.048;6.090;2023-04-03T16:23:44;0.70;;;0.38;;
76599;SDS011;65489;52.048;6.090;2023-04-03T16:26:10;0.75;;;0.40;;
76599;SDS011;65489;52.048;6.090;2023-04-03T16:28:35;0.60;;;0.30;;
76599;SDS011;65489;52.048;6.090;2023-04-03T16:31:01;1.10;;;0.45;;
76599;SDS011;65489;52.048;6.090;2023-04-03T16:33:26;1.02;;;0.40;;
76599;SDS011;65489;52.048;6.090;2023-04-03T16:35:52;2.47;;;0.50;;
76599;SDS011;65489;52.048;6.090;2023-04-03T16:38:18;0.75;;;0.40;;
76599;SDS011;65489;52.048;6.090;2023-04-03T16:43:13;1.08;;;0.43;;
76599;SDS011;65489;52.048;6.090;2023-04-03T16:45:39;0.95;;;0.30;;